sensor_id;sensor_type;location;lat;lon;timestamp;P1;durP1;ratioP1;P2;durP2;ratioP2
77586;SDS011;66744;49.716;17.158;2023-01-16T00:00:01;34.75;;;26.67;;
77586;SDS011;66744;49.716;17.158;2023-01-16T00:00:12;32.16;;;24.79;;
77586;SDS011;66744;49.716;17.158;2023-01-16T00:00:29;27.31;;;20.91;;
77586;SDS011;66744;49.716;17.158;2023-01-16T00:00:56;23.19;;;18.37;;
77586;SDS011;66744;49.716;17.158;2023-01-16T00:01:10;19.54;;;16.11;;
77586;SDS011;66744;49.716;17.158;2023-01-16T00:01:17;17.38;;;14.38;;
77586;SDS011;66744;49.716;17.158;2023-01-16T00:01:24;16.23;;;13.30;;
77586;SDS011;66744;49.716;17.158;2023-01-16T00:01:32;14.63;;;12.00;;
77586;SDS011;66744;49.716;17.158;2023-01-16T00:01:38;13.35;;;11.38;;
77586;SDS011;66744;49.716;17.158;2023-01-16T00:01:45;13.08;;;11.10;;
77586;SDS011;66744;49.716;17.158;2023-01-16T00:01:52;13.35;;;11.25;;
77586;SDS011;66744;49.716;17.158;2023-01-16T00:01:59;12.72;;;11.07;;
77586;SDS011;66744;49.716;17.158;2023-01-16T00:02:06;12.36;;;10.96;;
77586;SDS011;66744;49.716;17.158;2023-01-16T00:02:12;12.50;;;10.82;;
77586;SDS011;66744;49.716;17.158;2023-01-16T00:02:19;12.18;;;10.48;;
77586;SDS011;66744;49.716;17.158;2023-01-16T00:02:25;11.78;;;10.04;;
77586;SDS011;66744;49.716;17.158;2023-01-16T00:02:32;12.00;;;9.95;;
77586;SDS011;66744;49.716;17.158;2023-01-16T00:02:38;12.20;;;9.88;;
77586;SDS011;66744;49.716;17.158;2023-01-16T00:02:45;11.95;;;10.00;;
77586;SDS011;66744;49.716;17.158;2023-01-16T00:02:51;12.34;;;10.34;;
77586;SDS011;66744;49.716;17.158;2023-01-16T00:02:57;13.40;;;11.00;;
77586;SDS011;66744;49.716;17.158;2023-01-16T00:03:03;15.15;;;12.40;;
77586;SDS011;66744;49.716;17.158;2023-01-16T00:03:10;18.17;;;14.43;;
77586;SDS011;66744;49.716;17.158;2023-01-16T00:03:16;22.14;;;17.08;;
77586;SDS011;66744;49.716;17.158;2023-01-16T00:03:22;25.48;;;19.05;;
77586;SDS011;66744;49.716;17.158;2023-01-16T00:03:28;28.88;;;21.00;;
77586;SDS011;66744;49.716;17.158;2023-01-16T00:03:35;29.98;;;22.02;;
77586;SDS011;66744;49.716;17.158;2023-01-16T00:03:41;30.68;;;22.90;;
77586;SDS011;66744;49.716;17.158;2023-01-16T00:03:48;31.15;;;23.13;;
77586;SDS011;66744;49.716;17.158;2023-01-16T00:03:54;38.20;;;28.58;;
77586;SDS011;66744;49.716;17.158;2023-01-16T00:04:00;45.47;;;33.45;;
77586;SDS011;66744;49.716;17.158;2023-01-16T00:04:06;58.88;;;42.47;;
77586;SDS011;66744;49.716;17.158;2023-01-16T00:04:13;73.25;;;51.17;;
77586;SDS011;66744;49.716;17.158;2023-01-16T00:04:19;86.82;;;60.06;;
77586;SDS011;66744;49.716;17.158;2023-01-16T00:04:26;91.22;;;63.22;;
77586;SDS011;66744;49.716;17.158;2023-01-16T00:04:33;93.44;;;64.76;;
77586;SDS011;66744;49.716;17.158;2023-01-16T00:04:40;89.17;;;61.90;;
77586;SDS011;66744;49.716;17.158;2023-01-16T00:04:47;79.30;;;55.13;;
77586;SDS011;66744;49.716;17.158;2023-01-16T00:04:53;70.58;;;48.10;;
77586;SDS011;66744;49.716;17.158;2023-01-16T00:04:59;60.22;;;41.38;;
77586;SDS011;66744;49.716;17.158;2023-01-16T00:05:05;51.70;;;35.42;;
77586;SDS011;66744;49.716;17.158;2023-01-16T00:05:12;42.55;;;29.33;;
77586;SDS011;66744;49.716;17.158;2023-01-16T00:05:18;35.86;;;25.28;;
77586;SDS011;66744;49.716;17.158;2023-01-16T00:05:25;31.65;;;22.98;;
77586;SDS011;66744;49.716;17.158;2023-01-16T00:05:31;29.13;;;21.55;;
77586;SDS011;66744;49.716;17.158;2023-01-16T00:05:37;26.85;;;19.98;;
77586;SDS011;66744;49.716;17.158;2023-01-16T00:05:43;26.14;;;19.60;;
77586;SDS011;66744;49.716;17.158;2023-01-16T00:05:49;24.95;;;19.02;;
77586;SDS011;66744;49.716;17.158;2023-01-16T00:05:56;25.10;;;19.00;;
77586;SDS011;66744;49.716;17.158;2023-01-16T00:06:02;25.08;;;18.58;;
77586;SDS011;66744;49.716;17.158;2023-01-16T00:06:08;23.88;;;17.90;;
77586;SDS011;66744;49.716;17.158;2023-01-16T00:06:14;22.80;;;17.17;;
77586;SDS011;66744;49.716;17.158;2023-01-16T00:06:21;22.18;;;16.74;;
77586;SDS011;66744;49.716;17.158;2023-01-16T00:06:27;21.30;;;15.95;;
77586;SDS011;66744;49.716;17.158;2023-01-16T00:06:33;21.13;;;15.80;;
77586;SDS011;66744;49.716;17.158;2023-01-16T00:06:41;21.97;;;16.80;;
77586;SDS011;66744;49.716;17.158;2023-01-16T00:06:48;22.27;;;17.35;;
77586;SDS011;66744;49.716;17.158;2023-01-16T00:06:54;21.85;;;17.00;;
77586;SDS011;66744;49.716;17.158;2023-01-16T00:07:00;20.25;;;16.33;;
77586;SDS011;66744;49.716;17.158;2023-01-16T00:07:07;19.84;;;15.84;;
77586;SDS011;66744;49.716;17.158;2023-01-16T00:07:13;19.77;;;15.32;;
77586;SDS011;66744;49.716;17.158;2023-01-16T00:07:19;20.50;;;15.86;;
77586;SDS011;66744;49.716;17.158;2023-01-16T00:07:25;22.38;;;17.42;;
77586;SDS011;66744;49.716;17.158;2023-01-16T00:07:31;24.15;;;18.48;;
77586;SDS011;66744;49.716;17.158;2023-01-16T00:07:38;24.17;;;18.52;;
77586;SDS011;66744;49.716;17.158;2023-01-16T00:07:44;25.10;;;19.52;;
77586;SDS011;66744;49.716;17.158;2023-01-16T00:07:50;24.72;;;19.18;;
77586;SDS011;66744;49.716;17.158;2023-01-16T00:07:56;24.60;;;18.90;;
77586;SDS011;66744;49.716;17.158;2023-01-16T00:08:03;24.58;;;18.88;;
77586;SDS011;66744;49.716;17.158;2023-01-16T00:08:09;23.77;;;18.02;;
77586;SDS011;66744;49.716;17.158;2023-01-16T00:08:15;20.94;;;15.84;;
77586;SDS011;66744;49.716;17.158;2023-01-16T00:08:22;19.33;;;14.10;;
77586;SDS011;66744;49.716;17.158;2023-01-16T00:08:28;17.10;;;12.55;;
77586;SDS011;66744;49.716;17.158;2023-01-16T00:08:34;15.63;;;11.02;;
77586;SDS011;66744;49.716;17.158;2023-01-16T00:08:43;15.09;;;10.50;;
77586;SDS011;66744;49.716;17.158;2023-01-16T00:08:50;14.36;;;10.54;;
77586;SDS011;66744;49.716;17.158;2023-01-16T00:08:56;14.30;;;10.40;;
77586;SDS011;66744;49.716;17.158;2023-01-16T00:09:03;13.74;;;10.42;;
77586;SDS011;66744;49.716;17.158;2023-01-16T00:09:10;13.44;;;10.44;;
77586;SDS011;66744;49.716;17.158;2023-01-16T00:09:16;14.07;;;10.68;;
77586;SDS011;66744;49.716;17.158;2023-01-16T00:09:23;14.87;;;11.25;;
77586;SDS011;66744;49.716;17.158;2023-01-16T00:09:30;16.27;;;12.35;;
77586;SDS011;66744;49.716;17.158;2023-01-16T00:09:36;17.25;;;13.50;;
77586;SDS011;66744;49.716;17.158;2023-01-16T00:09:42;17.40;;;13.93;;
77586;SDS011;66744;49.716;17.158;2023-01-16T00:09:48;17.13;;;14.32;;
77586;SDS011;66744;49.716;17.158;2023-01-16T00:09:54;18.02;;;14.70;;
77586;SDS011;66744;49.716;17.158;2023-01-16T00:10:01;18.66;;;14.70;;
77586;SDS011;66744;49.716;17.158;2023-01-16T00:10:08;18.88;;;14.62;;
77586;SDS011;66744;49.716;17.158;2023-01-16T00:10:15;19.92;;;15.10;;
77586;SDS011;66744;49.716;17.158;2023-01-16T00:10:22;20.04;;;14.90;;
77586;SDS011;66744;49.716;17.158;2023-01-16T00:10:28;19.36;;;14.76;;
77586;SDS011;66744;49.716;17.158;2023-01-16T00:10:35;19.05;;;14.63;;
77586;SDS011;66744;49.716;17.158;2023-01-16T00:10:42;18.50;;;14.15;;
77586;SDS011;66744;49.716;17.158;2023-01-16T00:10:49;18.55;;;14.32;;
77586;SDS011;66744;49.716;17.158;2023-01-16T00:10:55;18.27;;;14.32;;
77586;SDS011;66744;49.716;17.158;2023-01-16T00:11:02;18.10;;;14.24;;
77586;SDS011;66744;49.716;17.158;2023-01-16T00:11:09;18.92;;;14.50;;
77586;SDS011;66744;49.716;17.158;2023-01-16T00:11:16;19.88;;;15.17;;
77586;SDS011;66744;49.716;17.158;2023-01-16T00:11:22;20.80;;;15.35;;
77586;SDS011;66744;49.716;17.158;2023-01-16T00:11:28;22.08;;;15.88;;
77586;SDS011;66744;49.716;17.158;2023-01-16T00:11:35;22.36;;;16.10;;
77586;SDS011;66744;49.716;17.158;2023-01-16T00:11:41;21.55;;;15.63;;
77586;SDS011;66744;49.716;17.158;2023-01-16T00:11:47;20.77;;;15.38;;
77586;SDS011;66744;49.716;17.158;2023-01-16T00:11:53;20.23;;;15.10;;
77586;SDS011;66744;49.716;17.158;2023-01-16T00:12:00;19.80;;;14.68;;
77586;SDS011;66744;49.716;17.158;2023-01-16T00:12:06;18.83;;;14.38;;
77586;SDS011;66744;49.716;17.158;2023-01-16T00:12:12;18.72;;;14.10;;
77586;SDS011;66744;49.716;17.158;2023-01-16T00:12:19;19.13;;;13.98;;
77586;SDS011;66744;49.716;17.158;2023-01-16T00:12:25;17.60;;;14.10;;
77586;SDS011;66744;49.716;17.158;2023-01-16T00:12:31;16.92;;;13.40;;
77586;SDS011;66744;49.716;17.158;2023-01-16T00:12:37;16.42;;;13.00;;
77586;SDS011;66744;49.716;17.158;2023-01-16T00:12:46;15.57;;;12.23;;
77586;SDS011;66744;49.716;17.158;2023-01-16T00:12:53;13.20;;;10.75;;
77586;SDS011;66744;49.716;17.158;2023-01-16T00:12:59;11.73;;;9.73;;
77586;SDS011;66744;49.716;17.158;2023-01-16T00:13:06;11.66;;;9.54;;
77586;SDS011;66744;49.716;17.158;2023-01-16T00:13:12;11.30;;;9.38;;
77586;SDS011;66744;49.716;17.158;2023-01-16T00:13:19;11.72;;;9.80;;
77586;SDS011;66744;49.716;17.158;2023-01-16T00:13:25;13.00;;;10.65;;
77586;SDS011;66744;49.716;17.158;2023-01-16T00:13:31;14.65;;;11.80;;
77586;SDS011;66744;49.716;17.158;2023-01-16T00:13:37;14.65;;;12.23;;
77586;SDS011;66744;49.716;17.158;2023-01-16T00:13:45;15.58;;;12.87;;
77586;SDS011;66744;49.716;17.158;2023-01-16T00:13:51;16.25;;;12.88;;
77586;SDS011;66744;49.716;17.158;2023-01-16T00:13:58;15.98;;;12.54;;
77586;SDS011;66744;49.716;17.158;2023-01-16T00:14:05;15.44;;;11.92;;
77586;SDS011;66744;49.716;17.158;2023-01-16T00:14:11;15.63;;;11.88;;
77586;SDS011;66744;49.716;17.158;2023-01-16T00:14:17;15.48;;;11.82;;
77586;SDS011;66744;49.716;17.158;2023-01-16T00:14:23;14.68;;;11.25;;
77586;SDS011;66744;49.716;17.158;2023-01-16T00:14:30;14.22;;;10.78;;
77586;SDS011;66744;49.716;17.158;2023-01-16T00:14:36;13.98;;;10.68;;
77586;SDS011;66744;49.716;17.158;2023-01-16T00:14:43;14.38;;;10.73;;
77586;SDS011;66744;49.716;17.158;2023-01-16T00:14:49;13.74;;;10.58;;
77586;SDS011;66744;49.716;17.158;2023-01-16T00:14:55;14.27;;;10.95;;
77586;SDS011;66744;49.716;17.158;2023-01-16T00:15:01;14.73;;;11.20;;
77586;SDS011;66744;49.716;17.158;2023-01-16T00:15:08;14.20;;;10.80;;
77586;SDS011;66744;49.716;17.158;2023-01-16T00:15:15;13.02;;;10.00;;
77586;SDS011;66744;49.716;17.158;2023-01-16T00:15:21;12.44;;;9.76;;
77586;SDS011;66744;49.716;17.158;2023-01-16T00:15:27;12.30;;;9.88;;
77586;SDS011;66744;49.716;17.158;2023-01-16T00:15:34;11.73;;;9.80;;
77586;SDS011;66744;49.716;17.158;2023-01-16T00:15:44;12.04;;;10.28;;
77586;SDS011;66744;49.716;17.158;2023-01-16T00:15:53;13.90;;;11.65;;
77586;SDS011;66744;49.716;17.158;2023-01-16T00:16:00;16.72;;;12.68;;
77586;SDS011;66744;49.716;17.158;2023-01-16T00:16:06;18.42;;;13.68;;
77586;SDS011;66744;49.716;17.158;2023-01-16T00:16:13;20.02;;;14.28;;
77586;SDS011;66744;49.716;17.158;2023-01-16T00:16:20;21.00;;;15.10;;
77586;SDS011;66744;49.716;17.158;2023-01-16T00:16:26;21.14;;;15.58;;
77586;SDS011;66744;49.716;17.158;2023-01-16T00:16:33;20.56;;;15.76;;
77586;SDS011;66744;49.716;17.158;2023-01-16T00:16:39;20.58;;;16.15;;
77586;SDS011;66744;49.716;17.158;2023-01-16T00:16:45;20.17;;;15.95;;
77586;SDS011;66744;49.716;17.158;2023-01-16T00:16:52;19.83;;;15.82;;
77586;SDS011;66744;49.716;17.158;2023-01-16T00:16:58;18.52;;;15.08;;
77586;SDS011;66744;49.716;17.158;2023-01-16T00:17:04;17.00;;;14.13;;
77586;SDS011;66744;49.716;17.158;2023-01-16T00:17:10;17.00;;;13.75;;
77586;SDS011;66744;49.716;17.158;2023-01-16T00:17:17;16.58;;;13.32;;
77586;SDS011;66744;49.716;17.158;2023-01-16T00:17:23;16.82;;;13.14;;
77586;SDS011;66744;49.716;17.158;2023-01-16T00:17:29;17.70;;;13.32;;
77586;SDS011;66744;49.716;17.158;2023-01-16T00:17:35;17.55;;;13.02;;
77586;SDS011;66744;49.716;17.158;2023-01-16T00:17:41;16.38;;;12.50;;
77586;SDS011;66744;49.716;17.158;2023-01-16T00:17:48;15.50;;;12.15;;
77586;SDS011;66744;49.716;17.158;2023-01-16T00:17:55;14.02;;;11.47;;
77586;SDS011;66744;49.716;17.158;2023-01-16T00:18:01;13.18;;;11.05;;
77586;SDS011;66744;49.716;17.158;2023-01-16T00:18:07;12.25;;;10.25;;
77586;SDS011;66744;49.716;17.158;2023-01-16T00:18:14;12.02;;;9.80;;
77586;SDS011;66744;49.716;17.158;2023-01-16T00:18:20;11.36;;;9.32;;
77586;SDS011;66744;49.716;17.158;2023-01-16T00:18:26;11.10;;;9.13;;
77586;SDS011;66744;49.716;17.158;2023-01-16T00:18:32;10.90;;;9.13;;
77586;SDS011;66744;49.716;17.158;2023-01-16T00:18:39;11.12;;;9.68;;
77586;SDS011;66744;49.716;17.158;2023-01-16T00:18:47;11.82;;;9.83;;
77586;SDS011;66744;49.716;17.158;2023-01-16T00:18:54;12.14;;;9.86;;
77586;SDS011;66744;49.716;17.158;2023-01-16T00:19:01;12.66;;;10.08;;
77586;SDS011;66744;49.716;17.158;2023-01-16T00:19:08;13.30;;;10.52;;
77586;SDS011;66744;49.716;17.158;2023-01-16T00:19:14;13.52;;;10.93;;
77586;SDS011;66744;49.716;17.158;2023-01-16T00:19:20;13.84;;;11.46;;
77586;SDS011;66744;49.716;17.158;2023-01-16T00:19:26;14.23;;;11.60;;
77586;SDS011;66744;49.716;17.158;2023-01-16T00:19:32;13.80;;;11.30;;
77586;SDS011;66744;49.716;17.158;2023-01-16T00:19:39;13.18;;;10.45;;
77586;SDS011;66744;49.716;17.158;2023-01-16T00:19:45;12.65;;;9.63;;
77586;SDS011;66744;49.716;17.158;2023-01-16T00:19:51;11.88;;;9.10;;
77586;SDS011;66744;49.716;17.158;2023-01-16T00:19:57;11.10;;;8.66;;
77586;SDS011;66744;49.716;17.158;2023-01-16T00:20:03;10.75;;;8.40;;
77586;SDS011;66744;49.716;17.158;2023-01-16T00:20:10;10.10;;;8.38;;
77586;SDS011;66744;49.716;17.158;2023-01-16T00:20:16;9.75;;;8.30;;
77586;SDS011;66744;49.716;17.158;2023-01-16T00:20:23;9.38;;;7.86;;
77586;SDS011;66744;49.716;17.158;2023-01-16T00:20:29;9.25;;;7.65;;
77586;SDS011;66744;49.716;17.158;2023-01-16T00:20:36;9.45;;;7.60;;
77586;SDS011;66744;49.716;17.158;2023-01-16T00:20:42;9.55;;;7.32;;
77586;SDS011;66744;49.716;17.158;2023-01-16T00:20:49;9.14;;;7.18;;
77586;SDS011;66744;49.716;17.158;2023-01-16T00:20:55;9.55;;;7.28;;
77586;SDS011;66744;49.716;17.158;2023-01-16T00:21:01;9.72;;;7.68;;
77586;SDS011;66744;49.716;17.158;2023-01-16T00:21:07;9.35;;;7.55;;
77586;SDS011;66744;49.716;17.158;2023-01-16T00:21:14;10.48;;;8.15;;
77586;SDS011;66744;49.716;17.158;2023-01-16T00:21:21;10.68;;;8.70;;
77586;SDS011;66744;49.716;17.158;2023-01-16T00:21:31;10.66;;;8.74;;
77586;SDS011;66744;49.716;17.158;2023-01-16T00:21:37;11.12;;;9.04;;
77586;SDS011;66744;49.716;17.158;2023-01-16T00:21:44;10.65;;;8.82;;
77586;SDS011;66744;49.716;17.158;2023-01-16T00:21:53;11.34;;;9.35;;
77586;SDS011;66744;49.716;17.158;2023-01-16T00:21:59;11.35;;;9.52;;
77586;SDS011;66744;49.716;17.158;2023-01-16T00:22:05;11.32;;;9.73;;
77586;SDS011;66744;49.716;17.158;2023-01-16T00:22:12;11.10;;;9.90;;
77586;SDS011;66744;49.716;17.158;2023-01-16T00:22:18;10.63;;;9.52;;
77586;SDS011;66744;49.716;17.158;2023-01-16T00:22:24;9.70;;;8.68;;
77586;SDS011;66744;49.716;17.158;2023-01-16T00:22:30;10.08;;;8.60;;
77586;SDS011;66744;49.716;17.158;2023-01-16T00:22:37;9.82;;;8.20;;
77586;SDS011;66744;49.716;17.158;2023-01-16T00:22:43;10.15;;;8.30;;
77586;SDS011;66744;49.716;17.158;2023-01-16T00:22:49;10.60;;;8.48;;
77586;SDS011;66744;49.716;17.158;2023-01-16T00:22:56;10.93;;;8.25;;
77586;SDS011;66744;49.716;17.158;2023-01-16T00:23:02;9.95;;;7.85;;
77586;SDS011;66744;49.716;17.158;2023-01-16T00:23:09;10.18;;;7.78;;
77586;SDS011;66744;49.716;17.158;2023-01-16T00:23:16;9.90;;;7.22;;
77586;SDS011;66744;49.716;17.158;2023-01-16T00:23:22;9.35;;;7.20;;
77586;SDS011;66744;49.716;17.158;2023-01-16T00:23:28;9.52;;;7.40;;
77586;SDS011;66744;49.716;17.158;2023-01-16T00:23:35;10.30;;;7.47;;
77586;SDS011;66744;49.716;17.158;2023-01-16T00:23:41;10.14;;;7.72;;
77586;SDS011;66744;49.716;17.158;2023-01-16T00:23:49;9.86;;;7.92;;
77586;SDS011;66744;49.716;17.158;2023-01-16T00:23:56;10.35;;;8.43;;
77586;SDS011;66744;49.716;17.158;2023-01-16T00:24:03;10.53;;;9.13;;
77586;SDS011;66744;49.716;17.158;2023-01-16T00:24:12;10.89;;;9.61;;
77586;SDS011;66744;49.716;17.158;2023-01-16T00:24:18;11.18;;;9.65;;
77586;SDS011;66744;49.716;17.158;2023-01-16T00:24:24;10.85;;;9.07;;
77586;SDS011;66744;49.716;17.158;2023-01-16T00:24:30;10.60;;;8.60;;
77586;SDS011;66744;49.716;17.158;2023-01-16T00:24:36;10.07;;;7.82;;
77586;SDS011;66744;49.716;17.158;2023-01-16T00:24:42;9.80;;;7.32;;
77586;SDS011;66744;49.716;17.158;2023-01-16T00:24:49;9.88;;;7.68;;
77586;SDS011;66744;49.716;17.158;2023-01-16T00:24:55;10.85;;;8.30;;
77586;SDS011;66744;49.716;17.158;2023-01-16T00:25:01;11.60;;;8.75;;
77586;SDS011;66744;49.716;17.158;2023-01-16T00:25:07;11.88;;;9.07;;
77586;SDS011;66744;49.716;17.158;2023-01-16T00:25:14;12.06;;;9.10;;
77586;SDS011;66744;49.716;17.158;2023-01-16T00:25:20;11.23;;;8.35;;
77586;SDS011;66744;49.716;17.158;2023-01-16T00:25:26;10.38;;;7.65;;
77586;SDS011;66744;49.716;17.158;2023-01-16T00:25:33;9.08;;;6.80;;
77586;SDS011;66744;49.716;17.158;2023-01-16T00:25:43;9.25;;;6.69;;
77586;SDS011;66744;49.716;17.158;2023-01-16T00:25:50;10.02;;;6.88;;
77586;SDS011;66744;49.716;17.158;2023-01-16T00:25:56;10.57;;;7.30;;
77586;SDS011;66744;49.716;17.158;2023-01-16T00:26:08;11.38;;;8.12;;
77586;SDS011;66744;49.716;17.158;2023-01-16T00:26:18;12.16;;;8.95;;
77586;SDS011;66744;49.716;17.158;2023-01-16T00:26:24;11.82;;;9.18;;
77586;SDS011;66744;49.716;17.158;2023-01-16T00:26:33;11.17;;;8.71;;
77586;SDS011;66744;49.716;17.158;2023-01-16T00:26:39;10.00;;;8.23;;
77586;SDS011;66744;49.716;17.158;2023-01-16T00:26:48;9.94;;;8.08;;
77586;SDS011;66744;49.716;17.158;2023-01-16T00:26:56;9.74;;;7.88;;
77586;SDS011;66744;49.716;17.158;2023-01-16T00:27:03;9.58;;;7.74;;
77586;SDS011;66744;49.716;17.158;2023-01-16T00:27:09;9.50;;;7.88;;
77586;SDS011;66744;49.716;17.158;2023-01-16T00:27:15;9.20;;;7.63;;
77586;SDS011;66744;49.716;17.158;2023-01-16T00:27:21;9.60;;;7.75;;
77586;SDS011;66744;49.716;17.158;2023-01-16T00:27:28;10.10;;;8.22;;
77586;SDS011;66744;49.716;17.158;2023-01-16T00:27:35;10.08;;;8.38;;
77586;SDS011;66744;49.716;17.158;2023-01-16T00:27:41;10.35;;;8.25;;
77586;SDS011;66744;49.716;17.158;2023-01-16T00:27:47;10.85;;;8.32;;
77586;SDS011;66744;49.716;17.158;2023-01-16T00:27:53;10.32;;;7.90;;
77586;SDS011;66744;49.716;17.158;2023-01-16T00:28:00;10.63;;;7.82;;
77586;SDS011;66744;49.716;17.158;2023-01-16T00:28:06;10.62;;;7.76;;
77586;SDS011;66744;49.716;17.158;2023-01-16T00:28:16;10.35;;;8.07;;
77586;SDS011;66744;49.716;17.158;2023-01-16T00:28:22;10.75;;;8.65;;
77586;SDS011;66744;49.716;17.158;2023-01-16T00:28:28;10.20;;;8.43;;
77586;SDS011;66744;49.716;17.158;2023-01-16T00:28:35;10.16;;;8.32;;
77586;SDS011;66744;49.716;17.158;2023-01-16T00:28:43;10.27;;;8.07;;
77586;SDS011;66744;49.716;17.158;2023-01-16T00:28:49;10.05;;;7.95;;
77586;SDS011;66744;49.716;17.158;2023-01-16T00:28:55;9.95;;;7.82;;
77586;SDS011;66744;49.716;17.158;2023-01-16T00:29:01;9.70;;;7.80;;
77586;SDS011;66744;49.716;17.158;2023-01-16T00:29:08;8.92;;;7.66;;
77586;SDS011;66744;49.716;17.158;2023-01-16T00:29:14;8.57;;;7.38;;
77586;SDS011;66744;49.716;17.158;2023-01-16T00:29:20;8.27;;;7.15;;
77586;SDS011;66744;49.716;17.158;2023-01-16T00:29:26;8.32;;;7.00;;
77586;SDS011;66744;49.716;17.158;2023-01-16T00:29:32;8.73;;;7.13;;
77586;SDS011;66744;49.716;17.158;2023-01-16T00:29:39;9.52;;;7.60;;
77586;SDS011;66744;49.716;17.158;2023-01-16T00:29:45;10.28;;;8.20;;
77586;SDS011;66744;49.716;17.158;2023-01-16T00:29:51;10.65;;;8.68;;
77586;SDS011;66744;49.716;17.158;2023-01-16T00:29:57;11.27;;;9.30;;
77586;SDS011;66744;49.716;17.158;2023-01-16T00:30:04;11.50;;;9.27;;
77586;SDS011;66744;49.716;17.158;2023-01-16T00:30:12;11.50;;;9.28;;
77586;SDS011;66744;49.716;17.158;2023-01-16T00:30:18;11.40;;;9.06;;
77586;SDS011;66744;49.716;17.158;2023-01-16T00:30:25;11.34;;;8.88;;
77586;SDS011;66744;49.716;17.158;2023-01-16T00:30:31;11.45;;;8.77;;
77586;SDS011;66744;49.716;17.158;2023-01-16T00:30:37;10.63;;;8.30;;
77586;SDS011;66744;49.716;17.158;2023-01-16T00:30:44;11.22;;;8.58;;
77586;SDS011;66744;49.716;17.158;2023-01-16T00:30:50;10.98;;;8.05;;
77586;SDS011;66744;49.716;17.158;2023-01-16T00:30:57;10.66;;;7.72;;
77586;SDS011;66744;49.716;17.158;2023-01-16T00:31:04;10.60;;;8.02;;
77586;SDS011;66744;49.716;17.158;2023-01-16T00:31:10;11.08;;;8.68;;
77586;SDS011;66744;49.716;17.158;2023-01-16T00:31:17;10.27;;;8.60;;
77586;SDS011;66744;49.716;17.158;2023-01-16T00:31:23;10.84;;;8.90;;
77586;SDS011;66744;49.716;17.158;2023-01-16T00:31:30;11.38;;;9.06;;
77586;SDS011;66744;49.716;17.158;2023-01-16T00:31:37;11.30;;;8.65;;
77586;SDS011;66744;49.716;17.158;2023-01-16T00:31:43;12.38;;;8.92;;
77586;SDS011;66744;49.716;17.158;2023-01-16T00:31:49;12.38;;;9.00;;
77586;SDS011;66744;49.716;17.158;2023-01-16T00:31:55;12.55;;;9.38;;
77586;SDS011;66744;49.716;17.158;2023-01-16T00:32:02;12.93;;;9.85;;
77586;SDS011;66744;49.716;17.158;2023-01-16T00:32:08;12.52;;;9.80;;
77586;SDS011;66744;49.716;17.158;2023-01-16T00:32:15;11.85;;;9.73;;
77586;SDS011;66744;49.716;17.158;2023-01-16T00:32:22;11.63;;;9.70;;
77586;SDS011;66744;49.716;17.158;2023-01-16T00:32:28;10.74;;;9.48;;
77586;SDS011;66744;49.716;17.158;2023-01-16T00:32:34;10.43;;;9.25;;
77586;SDS011;66744;49.716;17.158;2023-01-16T00:32:40;10.38;;;9.05;;
77586;SDS011;66744;49.716;17.158;2023-01-16T00:32:47;10.45;;;8.82;;
77586;SDS011;66744;49.716;17.158;2023-01-16T00:32:53;10.32;;;8.63;;
77586;SDS011;66744;49.716;17.158;2023-01-16T00:32:59;9.60;;;8.24;;
77586;SDS011;66744;49.716;17.158;2023-01-16T00:33:05;9.20;;;7.82;;
77586;SDS011;66744;49.716;17.158;2023-01-16T00:33:12;9.20;;;7.70;;
77586;SDS011;66744;49.716;17.158;2023-01-16T00:33:18;9.10;;;7.82;;
77586;SDS011;66744;49.716;17.158;2023-01-16T00:33:25;10.10;;;8.15;;
77586;SDS011;66744;49.716;17.158;2023-01-16T00:33:31;10.57;;;8.52;;
77586;SDS011;66744;49.716;17.158;2023-01-16T00:33:40;10.48;;;8.23;;
77586;SDS011;66744;49.716;17.158;2023-01-16T00:33:48;10.26;;;7.52;;
77586;SDS011;66744;49.716;17.158;2023-01-16T00:33:54;9.04;;;6.86;;
77586;SDS011;66744;49.716;17.158;2023-01-16T00:34:00;8.30;;;6.40;;
77586;SDS011;66744;49.716;17.158;2023-01-16T00:34:07;7.68;;;5.97;;
77586;SDS011;66744;49.716;17.158;2023-01-16T00:34:13;6.60;;;5.35;;
77586;SDS011;66744;49.716;17.158;2023-01-16T00:34:19;5.68;;;4.82;;
77586;SDS011;66744;49.716;17.158;2023-01-16T00:34:25;5.26;;;4.24;;
77586;SDS011;66744;49.716;17.158;2023-01-16T00:34:31;5.95;;;4.38;;
77586;SDS011;66744;49.716;17.158;2023-01-16T00:34:37;6.65;;;4.97;;
77586;SDS011;66744;49.716;17.158;2023-01-16T00:34:44;7.57;;;6.00;;
77586;SDS011;66744;49.716;17.158;2023-01-16T00:34:50;8.95;;;7.00;;
77586;SDS011;66744;49.716;17.158;2023-01-16T00:34:56;9.88;;;7.82;;
77586;SDS011;66744;49.716;17.158;2023-01-16T00:35:03;10.02;;;8.32;;
77586;SDS011;66744;49.716;17.158;2023-01-16T00:35:09;10.36;;;8.50;;
77586;SDS011;66744;49.716;17.158;2023-01-16T00:35:16;10.55;;;8.88;;
77586;SDS011;66744;49.716;17.158;2023-01-16T00:35:22;11.73;;;9.15;;
77586;SDS011;66744;49.716;17.158;2023-01-16T00:35:28;12.12;;;9.38;;
77586;SDS011;66744;49.716;17.158;2023-01-16T00:35:35;12.43;;;9.70;;
77586;SDS011;66744;49.716;17.158;2023-01-16T00:35:41;12.73;;;10.15;;
77586;SDS011;66744;49.716;17.158;2023-01-16T00:35:47;12.88;;;10.12;;
77586;SDS011;66744;49.716;17.158;2023-01-16T00:35:54;12.05;;;10.20;;
77586;SDS011;66744;49.716;17.158;2023-01-16T00:36:00;11.65;;;9.90;;
77586;SDS011;66744;49.716;17.158;2023-01-16T00:36:07;10.96;;;9.26;;
77586;SDS011;66744;49.716;17.158;2023-01-16T00:36:17;10.29;;;8.91;;
77586;SDS011;66744;49.716;17.158;2023-01-16T00:36:23;10.02;;;8.32;;
77586;SDS011;66744;49.716;17.158;2023-01-16T00:36:29;9.93;;;8.32;;
77586;SDS011;66744;49.716;17.158;2023-01-16T00:36:35;11.00;;;8.52;;
77586;SDS011;66744;49.716;17.158;2023-01-16T00:36:44;11.78;;;8.65;;
77586;SDS011;66744;49.716;17.158;2023-01-16T00:36:51;12.72;;;9.02;;
77586;SDS011;66744;49.716;17.158;2023-01-16T00:36:57;13.32;;;9.10;;
77586;SDS011;66744;49.716;17.158;2023-01-16T00:37:03;13.18;;;9.27;;
77586;SDS011;66744;49.716;17.158;2023-01-16T00:37:09;12.18;;;9.34;;
77586;SDS011;66744;49.716;17.158;2023-01-16T00:37:16;11.65;;;9.45;;
77586;SDS011;66744;49.716;17.158;2023-01-16T00:37:22;11.77;;;9.77;;
77586;SDS011;66744;49.716;17.158;2023-01-16T00:37:28;12.07;;;10.07;;
77586;SDS011;66744;49.716;17.158;2023-01-16T00:37:34;12.36;;;10.08;;
77586;SDS011;66744;49.716;17.158;2023-01-16T00:37:40;12.73;;;10.35;;
77586;SDS011;66744;49.716;17.158;2023-01-16T00:37:47;12.27;;;9.80;;
77586;SDS011;66744;49.716;17.158;2023-01-16T00:37:53;11.93;;;9.65;;
77586;SDS011;66744;49.716;17.158;2023-01-16T00:37:59;11.13;;;9.48;;
77586;SDS011;66744;49.716;17.158;2023-01-16T00:38:06;10.72;;;9.14;;
77586;SDS011;66744;49.716;17.158;2023-01-16T00:38:12;10.10;;;8.63;;
77586;SDS011;66744;49.716;17.158;2023-01-16T00:38:18;9.80;;;8.52;;
77586;SDS011;66744;49.716;17.158;2023-01-16T00:38:24;9.44;;;8.30;;
77586;SDS011;66744;49.716;17.158;2023-01-16T00:38:31;9.88;;;8.25;;
77586;SDS011;66744;49.716;17.158;2023-01-16T00:38:38;9.64;;;8.12;;
77586;SDS011;66744;49.716;17.158;2023-01-16T00:38:45;9.74;;;8.20;;
77586;SDS011;66744;49.716;17.158;2023-01-16T00:38:51;10.32;;;8.40;;
77586;SDS011;66744;49.716;17.158;2023-01-16T00:38:57;9.76;;;7.58;;